Terminal Aerodrome Forecast
Issued by NWS

Home | Current Version | Previous Version | Text Only | Print | Product List | Glossary On
Versions: 1 2 3 4 5 6 7 8 9 10 11 12 13 14 15 16 17 18 19 20 21 22 23 24 25 26 27 28 29 30 31 32 33 34 35 36
627
FTUS43 KGRB 200520
TAFAUW
TAF
KAUW 200520Z 2006/2106 VRB03KT 4SM BR SCT020
      TEMPO 2006/2008 1 1/2SM BR BKN004
     FM200800 VRB03KT 1/4SM FG VV002
     FM201400 12004KT 1 1/2SM BR BKN004
      TEMPO 2014/2015 4SM BR BKN007
     FM201500 14005KT P6SM BKN012
     FM201700 15008KT P6SM BKN020
     FM202000 15007KT P6SM BKN035
     FM210400 14005KT 4SM BR SCT020 BKN100=

USA.gov is the U.S. government's official web portal to all federal, state and local government web resources and services.